Terminal Aerodrome Forecast
Issued by NWS

Home | Current Version | Previous Version | Text Only | Print | Product List | Glossary On
Versions: 1 2 3 4 5 6 7 8 9 10 11 12 13 14 15 16 17
944
FTUS41 KILN 270520
TAFLUK
TAF
KLUK 270520Z 2706/2806 24007KT P6SM VCTS SCT050CB
     FM270700 00000KT 3SM BR FEW100
      TEMPO 2709/2712 1SM BR
     FM271500 26003KT P6SM SKC
     FM271700 28004KT P6SM SCT060
     FM280000 00000KT P6SM SKC=

USA.gov is the U.S. government's official web portal to all federal, state and local government web resources and services.